sensor_id;sensor_type;location;lat;lon;timestamp;pressure;altitude;pressure_sealevel;temperature;humidity
61436;BME280;47304;47.456;19.160;2024-01-16T00:01:04;99079.54;;;0.56;59.49
61436;BME280;47304;47.456;19.160;2024-01-16T00:03:32;99083.31;;;0.55;59.60
61436;BME280;47304;47.456;19.160;2024-01-16T00:06:01;99080.55;;;0.55;59.88
61436;BME280;47304;47.456;19.160;2024-01-16T00:08:29;99074.88;;;0.55;59.87
61436;BME280;47304;47.456;19.160;2024-01-16T00:10:57;99084.53;;;0.55;60.04
61436;BME280;47304;47.456;19.160;2024-01-16T00:13:26;99088.52;;;0.56;60.25
61436;BME280;47304;47.456;19.160;2024-01-16T00:15:54;99091.83;;;0.58;60.20
61436;BME280;47304;47.456;19.160;2024-01-16T00:18:22;99090.98;;;0.60;60.30
61436;BME280;47304;47.456;19.160;2024-01-16T00:20:51;99096.38;;;0.63;60.39
61436;BME280;47304;47.456;19.160;2024-01-16T00:23:19;99104.52;;;0.65;60.34
61436;BME280;47304;47.456;19.160;2024-01-16T00:25:47;99106.27;;;0.66;60.37
61436;BME280;47304;47.456;19.160;2024-01-16T00:28:15;99111.10;;;0.67;60.44
61436;BME280;47304;47.456;19.160;2024-01-16T00:30:44;99112.67;;;0.68;60.37
61436;BME280;47304;47.456;19.160;2024-01-16T00:33:12;99122.33;;;0.68;60.64
61436;BME280;47304;47.456;19.160;2024-01-16T00:35:40;99126.98;;;0.67;60.59
61436;BME280;47304;47.456;19.160;2024-01-16T00:38:08;99129.55;;;0.66;60.68
61436;BME280;47304;47.456;19.160;2024-01-16T00:40:36;99137.80;;;0.65;60.87
61436;BME280;47304;47.456;19.160;2024-01-16T00:43:05;99137.09;;;0.64;60.81
61436;BME280;47304;47.456;19.160;2024-01-16T00:45:33;99142.89;;;0.61;60.91
61436;BME280;47304;47.456;19.160;2024-01-16T00:48:01;99150.63;;;0.59;61.06
61436;BME280;47304;47.456;19.160;2024-01-16T00:50:30;99150.92;;;0.58;61.12
61436;BME280;47304;47.456;19.160;2024-01-16T00:52:58;99155.71;;;0.56;61.19
61436;BME280;47304;47.456;19.160;2024-01-16T00:55:27;99160.31;;;0.53;61.31
61436;BME280;47304;47.456;19.160;2024-01-16T00:57:55;99162.84;;;0.50;61.26
61436;BME280;47304;47.456;19.160;2024-01-16T01:00:23;99162.48;;;0.50;61.31
61436;BME280;47304;47.456;19.160;2024-01-16T01:02:51;99161.23;;;0.48;61.33
61436;BME280;47304;47.456;19.160;2024-01-16T01:05:20;99165.70;;;0.48;61.49
61436;BME280;47304;47.456;19.160;2024-01-16T01:07:48;99164.00;;;0.48;61.50
61436;BME280;47304;47.456;19.160;2024-01-16T01:10:16;99165.36;;;0.48;61.53
61436;BME280;47304;47.456;19.160;2024-01-16T01:12:45;99172.77;;;0.48;61.40
61436;BME280;47304;47.456;19.160;2024-01-16T01:15:13;99175.59;;;0.50;61.08
61436;BME280;47304;47.456;19.160;2024-01-16T01:17:41;99176.33;;;0.52;60.97
61436;BME280;47304;47.456;19.160;2024-01-16T01:20:10;99177.39;;;0.54;60.85
61436;BME280;47304;47.456;19.160;2024-01-16T01:22:39;99178.95;;;0.55;60.69
61436;BME280;47304;47.456;19.160;2024-01-16T01:25:09;99186.40;;;0.56;60.78
61436;BME280;47304;47.456;19.160;2024-01-16T01:27:37;99191.55;;;0.55;60.82
61436;BME280;47304;47.456;19.160;2024-01-16T01:30:07;99192.56;;;0.54;60.97
61436;BME280;47304;47.456;19.160;2024-01-16T01:32:35;99195.80;;;0.53;60.92
61436;BME280;47304;47.456;19.160;2024-01-16T01:35:04;99193.90;;;0.52;60.88
61436;BME280;47304;47.456;19.160;2024-01-16T01:37:33;99190.25;;;0.51;60.99
61436;BME280;47304;47.456;19.160;2024-01-16T01:40:01;99197.31;;;0.51;60.97
61436;BME280;47304;47.456;19.160;2024-01-16T01:42:29;99194.91;;;0.51;60.88
61436;BME280;47304;47.456;19.160;2024-01-16T01:44:57;99198.52;;;0.50;60.85
61436;BME280;47304;47.456;19.160;2024-01-16T01:47:25;99200.77;;;0.52;60.61
61436;BME280;47304;47.456;19.160;2024-01-16T01:49:54;99205.48;;;0.53;60.48
61436;BME280;47304;47.456;19.160;2024-01-16T01:52:22;99211.33;;;0.53;60.35
61436;BME280;47304;47.456;19.160;2024-01-16T01:54:52;99211.16;;;0.53;60.26
61436;BME280;47304;47.456;19.160;2024-01-16T01:57:20;99221.69;;;0.54;60.21
61436;BME280;47304;47.456;19.160;2024-01-16T01:59:49;99222.39;;;0.55;59.96
61436;BME280;47304;47.456;19.160;2024-01-16T02:02:18;99226.05;;;0.56;59.81
61436;BME280;47304;47.456;19.160;2024-01-16T02:04:46;99230.54;;;0.57;59.76
61436;BME280;47304;47.456;19.160;2024-01-16T02:07:15;99233.33;;;0.58;59.75
61436;BME280;47304;47.456;19.160;2024-01-16T02:09:44;99237.15;;;0.60;59.64
61436;BME280;47304;47.456;19.160;2024-01-16T02:12:12;99241.77;;;0.58;59.74
61436;BME280;47304;47.456;19.160;2024-01-16T02:14:41;99240.52;;;0.56;59.84
61436;BME280;47304;47.456;19.160;2024-01-16T02:17:09;99248.06;;;0.54;59.74
61436;BME280;47304;47.456;19.160;2024-01-16T02:19:37;99245.23;;;0.51;59.79
61436;BME280;47304;47.456;19.160;2024-01-16T02:22:09;99251.38;;;0.49;59.88
61436;BME280;47304;47.456;19.160;2024-01-16T02:24:40;99255.64;;;0.46;60.01
61436;BME280;47304;47.456;19.160;2024-01-16T02:27:08;99261.13;;;0.45;60.04
61436;BME280;47304;47.456;19.160;2024-01-16T02:29:41;99269.55;;;0.44;60.13
61436;BME280;47304;47.456;19.160;2024-01-16T02:32:11;99270.90;;;0.43;60.21
61436;BME280;47304;47.456;19.160;2024-01-16T02:34:40;99277.40;;;0.41;60.20
61436;BME280;47304;47.456;19.160;2024-01-16T02:37:08;99280.95;;;0.38;60.21
61436;BME280;47304;47.456;19.160;2024-01-16T02:39:36;99283.33;;;0.36;60.30
61436;BME280;47304;47.456;19.160;2024-01-16T02:42:05;99287.04;;;0.34;60.40
61436;BME280;47304;47.456;19.160;2024-01-16T02:44:33;99285.42;;;0.30;60.47
61436;BME280;47304;47.456;19.160;2024-01-16T02:47:02;99284.84;;;0.27;60.67
61436;BME280;47304;47.456;19.160;2024-01-16T02:49:30;99290.14;;;0.26;60.67
61436;BME280;47304;47.456;19.160;2024-01-16T02:51:58;99292.84;;;0.23;60.68
61436;BME280;47304;47.456;19.160;2024-01-16T02:54:26;99293.31;;;0.21;60.87
61436;BME280;47304;47.456;19.160;2024-01-16T02:56:54;99293.46;;;0.20;60.90
61436;BME280;47304;47.456;19.160;2024-01-16T02:59:23;99296.70;;;0.19;60.80
61436;BME280;47304;47.456;19.160;2024-01-16T03:01:51;99296.88;;;0.19;60.85
61436;BME280;47304;47.456;19.160;2024-01-16T03:04:19;99298.89;;;0.17;61.00
61436;BME280;47304;47.456;19.160;2024-01-16T03:06:47;99299.02;;;0.15;60.98
61436;BME280;47304;47.456;19.160;2024-01-16T03:09:15;99301.77;;;0.14;60.97
61436;BME280;47304;47.456;19.160;2024-01-16T03:11:43;99306.05;;;0.13;60.97
61436;BME280;47304;47.456;19.160;2024-01-16T03:14:12;99308.92;;;0.11;61.00
61436;BME280;47304;47.456;19.160;2024-01-16T03:16:40;99308.20;;;0.10;60.99
61436;BME280;47304;47.456;19.160;2024-01-16T03:19:08;99312.65;;;0.09;60.93
61436;BME280;47304;47.456;19.160;2024-01-16T03:21:37;99316.27;;;0.08;61.00
61436;BME280;47304;47.456;19.160;2024-01-16T03:24:06;99316.20;;;0.06;61.01
61436;BME280;47304;47.456;19.160;2024-01-16T03:26:34;99323.73;;;0.04;60.99
61436;BME280;47304;47.456;19.160;2024-01-16T03:29:02;99327.82;;;0.03;60.93
61436;BME280;47304;47.456;19.160;2024-01-16T03:31:31;99330.16;;;-0.00;61.13
61436;BME280;47304;47.456;19.160;2024-01-16T03:33:59;99335.23;;;-0.04;61.14
61436;BME280;47304;47.456;19.160;2024-01-16T03:36:28;99334.98;;;-0.07;61.11
61436;BME280;47304;47.456;19.160;2024-01-16T03:38:56;99339.05;;;-0.10;61.13
61436;BME280;47304;47.456;19.160;2024-01-16T03:41:25;99344.98;;;-0.13;61.21
61436;BME280;47304;47.456;19.160;2024-01-16T03:43:53;99346.60;;;-0.17;61.27
61436;BME280;47304;47.456;19.160;2024-01-16T03:46:21;99357.05;;;-0.20;61.39
61436;BME280;47304;47.456;19.160;2024-01-16T03:48:49;99357.67;;;-0.22;61.35
61436;BME280;47304;47.456;19.160;2024-01-16T03:51:17;99365.21;;;-0.23;61.37
61436;BME280;47304;47.456;19.160;2024-01-16T03:53:46;99370.52;;;-0.24;61.46
61436;BME280;47304;47.456;19.160;2024-01-16T03:56:15;99371.67;;;-0.26;61.39
61436;BME280;47304;47.456;19.160;2024-01-16T03:58:43;99375.08;;;-0.27;61.33
61436;BME280;47304;47.456;19.160;2024-01-16T04:01:12;99371.80;;;-0.28;61.25
61436;BME280;47304;47.456;19.160;2024-01-16T04:03:40;99372.30;;;-0.29;61.38
61436;BME280;47304;47.456;19.160;2024-01-16T04:06:17;99375.02;;;-0.29;61.30
61436;BME280;47304;47.456;19.160;2024-01-16T04:08:45;99374.84;;;-0.30;61.31
61436;BME280;47304;47.456;19.160;2024-01-16T04:11:14;99377.08;;;-0.30;61.26
61436;BME280;47304;47.456;19.160;2024-01-16T04:13:43;99370.71;;;-0.29;61.21
61436;BME280;47304;47.456;19.160;2024-01-16T04:16:13;99374.53;;;-0.28;61.23
61436;BME280;47304;47.456;19.160;2024-01-16T04:18:42;99375.73;;;-0.29;61.21
61436;BME280;47304;47.456;19.160;2024-01-16T04:21:11;99384.30;;;-0.30;61.16
61436;BME280;47304;47.456;19.160;2024-01-16T04:23:40;99383.79;;;-0.30;61.01
61436;BME280;47304;47.456;19.160;2024-01-16T04:26:09;99379.30;;;-0.30;61.01
61436;BME280;47304;47.456;19.160;2024-01-16T04:28:37;99386.89;;;-0.29;60.79
61436;BME280;47304;47.456;19.160;2024-01-16T04:31:06;99398.80;;;-0.28;60.76
61436;BME280;47304;47.456;19.160;2024-01-16T04:33:34;99397.61;;;-0.28;60.64
61436;BME280;47304;47.456;19.160;2024-01-16T04:36:02;99397.09;;;-0.28;60.61
61436;BME280;47304;47.456;19.160;2024-01-16T04:38:31;99397.09;;;-0.28;60.60
61436;BME280;47304;47.456;19.160;2024-01-16T04:41:02;99404.48;;;-0.28;60.49
61436;BME280;47304;47.456;19.160;2024-01-16T04:43:29;99410.37;;;-0.27;60.41
61436;BME280;47304;47.456;19.160;2024-01-16T04:45:57;99415.73;;;-0.26;60.41
61436;BME280;47304;47.456;19.160;2024-01-16T04:48:25;99414.01;;;-0.26;60.31
61436;BME280;47304;47.456;19.160;2024-01-16T04:50:53;99413.54;;;-0.25;60.17
61436;BME280;47304;47.456;19.160;2024-01-16T04:53:21;99416.14;;;-0.24;60.10
61436;BME280;47304;47.456;19.160;2024-01-16T04:55:50;99416.86;;;-0.23;60.01
61436;BME280;47304;47.456;19.160;2024-01-16T04:58:18;99418.65;;;-0.21;59.86
61436;BME280;47304;47.456;19.160;2024-01-16T05:00:47;99421.41;;;-0.20;59.85
61436;BME280;47304;47.456;19.160;2024-01-16T05:03:15;99431.77;;;-0.19;59.74
61436;BME280;47304;47.456;19.160;2024-01-16T05:05:43;99434.19;;;-0.19;59.82
61436;BME280;47304;47.456;19.160;2024-01-16T05:08:11;99435.55;;;-0.19;59.64
61436;BME280;47304;47.456;19.160;2024-01-16T05:10:40;99436.73;;;-0.20;59.60
61436;BME280;47304;47.456;19.160;2024-01-16T05:13:08;99440.02;;;-0.20;59.44
61436;BME280;47304;47.456;19.160;2024-01-16T05:15:36;99444.66;;;-0.20;59.41
61436;BME280;47304;47.456;19.160;2024-01-16T05:18:05;99449.30;;;-0.20;59.29
61436;BME280;47304;47.456;19.160;2024-01-16T05:20:33;99452.13;;;-0.18;59.13
61436;BME280;47304;47.456;19.160;2024-01-16T05:23:02;99457.20;;;-0.15;59.00
61436;BME280;47304;47.456;19.160;2024-01-16T05:25:30;99463.24;;;-0.13;59.00
61436;BME280;47304;47.456;19.160;2024-01-16T05:27:59;99464.30;;;-0.13;58.82
61436;BME280;47304;47.456;19.160;2024-01-16T05:30:27;99471.02;;;-0.13;58.74
61436;BME280;47304;47.456;19.160;2024-01-16T05:32:55;99472.42;;;-0.12;58.73
61436;BME280;47304;47.456;19.160;2024-01-16T05:35:24;99481.05;;;-0.11;58.63
61436;BME280;47304;47.456;19.160;2024-01-16T05:37:52;99472.98;;;-0.10;58.72
61436;BME280;47304;47.456;19.160;2024-01-16T05:40:20;99473.13;;;-0.11;58.40
61436;BME280;47304;47.456;19.160;2024-01-16T05:42:49;99484.02;;;-0.09;58.29
61436;BME280;47304;47.456;19.160;2024-01-16T05:45:17;99489.36;;;-0.09;58.34
61436;BME280;47304;47.456;19.160;2024-01-16T05:47:46;99494.86;;;-0.10;58.28
61436;BME280;47304;47.456;19.160;2024-01-16T05:50:14;99495.32;;;-0.12;58.25
61436;BME280;47304;47.456;19.160;2024-01-16T05:52:43;99496.65;;;-0.13;58.16
61436;BME280;47304;47.456;19.160;2024-01-16T05:55:11;99500.55;;;-0.16;58.22
61436;BME280;47304;47.456;19.160;2024-01-16T05:57:39;99497.08;;;-0.17;58.20
61436;BME280;47304;47.456;19.160;2024-01-16T06:00:09;99502.52;;;-0.19;58.20
61436;BME280;47304;47.456;19.160;2024-01-16T06:02:37;99509.03;;;-0.21;58.16
61436;BME280;47304;47.456;19.160;2024-01-16T06:05:06;99508.14;;;-0.22;58.24
61436;BME280;47304;47.456;19.160;2024-01-16T06:07:34;99509.30;;;-0.22;58.11
61436;BME280;47304;47.456;19.160;2024-01-16T06:10:03;99512.58;;;-0.22;58.02
61436;BME280;47304;47.456;19.160;2024-01-16T06:12:31;99523.23;;;-0.23;58.00
61436;BME280;47304;47.456;19.160;2024-01-16T06:14:59;99527.36;;;-0.23;58.01
61436;BME280;47304;47.456;19.160;2024-01-16T06:17:28;99536.13;;;-0.24;57.79
61436;BME280;47304;47.456;19.160;2024-01-16T06:19:56;99537.52;;;-0.23;57.67
61436;BME280;47304;47.456;19.160;2024-01-16T06:22:24;99542.85;;;-0.23;57.76
61436;BME280;47304;47.456;19.160;2024-01-16T06:24:52;99546.81;;;-0.23;57.82
61436;BME280;47304;47.456;19.160;2024-01-16T06:27:21;99551.77;;;-0.25;57.66
61436;BME280;47304;47.456;19.160;2024-01-16T06:29:49;99559.16;;;-0.25;57.75
61436;BME280;47304;47.456;19.160;2024-01-16T06:32:17;99561.58;;;-0.25;57.56
61436;BME280;47304;47.456;19.160;2024-01-16T06:34:45;99570.13;;;-0.26;57.53
61436;BME280;47304;47.456;19.160;2024-01-16T06:37:13;99574.27;;;-0.26;57.65
61436;BME280;47304;47.456;19.160;2024-01-16T06:39:42;99580.80;;;-0.26;57.60
61436;BME280;47304;47.456;19.160;2024-01-16T06:42:10;99587.23;;;-0.24;57.47
61436;BME280;47304;47.456;19.160;2024-01-16T06:44:39;99588.63;;;-0.24;57.29
61436;BME280;47304;47.456;19.160;2024-01-16T06:47:07;99593.44;;;-0.24;57.25
61436;BME280;47304;47.456;19.160;2024-01-16T06:49:36;99600.66;;;-0.24;57.34
61436;BME280;47304;47.456;19.160;2024-01-16T06:52:04;99612.19;;;-0.25;57.23
61436;BME280;47304;47.456;19.160;2024-01-16T06:54:32;99622.58;;;-0.23;57.01
61436;BME280;47304;47.456;19.160;2024-01-16T06:57:01;99631.44;;;-0.20;57.02
61436;BME280;47304;47.456;19.160;2024-01-16T06:59:29;99639.27;;;-0.18;56.90
61436;BME280;47304;47.456;19.160;2024-01-16T07:01:57;99644.08;;;-0.12;56.52
61436;BME280;47304;47.456;19.160;2024-01-16T07:04:25;99650.20;;;-0.09;56.64
61436;BME280;47304;47.456;19.160;2024-01-16T07:06:54;99651.82;;;-0.06;56.53
61436;BME280;47304;47.456;19.160;2024-01-16T07:09:22;99654.49;;;-0.04;56.41
61436;BME280;47304;47.456;19.160;2024-01-16T07:11:50;99659.45;;;0.00;56.28
61436;BME280;47304;47.456;19.160;2024-01-16T07:14:18;99664.73;;;0.05;56.15
61436;BME280;47304;47.456;19.160;2024-01-16T07:16:46;99664.01;;;0.09;55.96
61436;BME280;47304;47.456;19.160;2024-01-16T07:19:14;99667.59;;;0.13;55.89
61436;BME280;47304;47.456;19.160;2024-01-16T07:21:43;99669.80;;;0.18;55.91
61436;BME280;47304;47.456;19.160;2024-01-16T07:24:11;99672.37;;;0.24;55.42
61436;BME280;47304;47.456;19.160;2024-01-16T07:26:39;99664.98;;;0.30;55.25
61436;BME280;47304;47.456;19.160;2024-01-16T07:29:07;99669.15;;;0.38;55.09
61436;BME280;47304;47.456;19.160;2024-01-16T07:31:36;99674.47;;;0.42;54.97
61436;BME280;47304;47.456;19.160;2024-01-16T07:34:04;99680.15;;;0.48;54.57
61436;BME280;47304;47.456;19.160;2024-01-16T07:36:32;99678.04;;;0.53;54.39
61436;BME280;47304;47.456;19.160;2024-01-16T07:39:00;99685.83;;;0.59;54.45
61436;BME280;47304;47.456;19.160;2024-01-16T07:41:29;99692.21;;;0.66;54.06
61436;BME280;47304;47.456;19.160;2024-01-16T07:43:57;99695.98;;;0.71;53.90
61436;BME280;47304;47.456;19.160;2024-01-16T07:46:25;99697.63;;;0.81;53.64
61436;BME280;47304;47.456;19.160;2024-01-16T07:48:53;99706.02;;;0.91;53.38
61436;BME280;47304;47.456;19.160;2024-01-16T07:51:21;99712.38;;;1.02;52.87
61436;BME280;47304;47.456;19.160;2024-01-16T07:53:59;99716.02;;;1.10;52.72
61436;BME280;47304;47.456;19.160;2024-01-16T07:56:32;99722.71;;;1.21;52.46
61436;BME280;47304;47.456;19.160;2024-01-16T07:59:00;99726.98;;;1.38;52.06
61436;BME280;47304;47.456;19.160;2024-01-16T08:01:28;99725.17;;;1.56;51.50
61436;BME280;47304;47.456;19.160;2024-01-16T08:03:56;99723.41;;;1.76;51.28
61436;BME280;47304;47.456;19.160;2024-01-16T08:06:25;99725.99;;;1.96;50.98
61436;BME280;47304;47.456;19.160;2024-01-16T08:08:54;99726.56;;;2.13;50.57
61436;BME280;47304;47.456;19.160;2024-01-16T08:11:23;99732.07;;;2.27;50.01
61436;BME280;47304;47.456;19.160;2024-01-16T08:13:51;99728.55;;;2.40;49.52
61436;BME280;47304;47.456;19.160;2024-01-16T08:16:19;99732.23;;;2.50;49.41
61436;BME280;47304;47.456;19.160;2024-01-16T08:18:48;99737.30;;;2.61;49.17
61436;BME280;47304;47.456;19.160;2024-01-16T08:21:16;99736.15;;;2.71;48.94
61436;BME280;47304;47.456;19.160;2024-01-16T08:23:45;99735.03;;;2.75;48.82
61436;BME280;47304;47.456;19.160;2024-01-16T08:26:13;99737.15;;;2.78;48.61
61436;BME280;47304;47.456;19.160;2024-01-16T08:28:42;99737.54;;;2.88;48.60
61436;BME280;47304;47.456;19.160;2024-01-16T08:31:10;99744.31;;;3.07;48.55
61436;BME280;47304;47.456;19.160;2024-01-16T08:33:38;99744.20;;;3.28;48.52
61436;BME280;47304;47.456;19.160;2024-01-16T08:36:09;99750.46;;;3.48;47.33
61436;BME280;47304;47.456;19.160;2024-01-16T08:38:37;99755.17;;;3.59;46.74
61436;BME280;47304;47.456;19.160;2024-01-16T08:41:05;99756.65;;;3.65;46.12
61436;BME280;47304;47.456;19.160;2024-01-16T08:43:34;99761.83;;;3.64;46.09
61436;BME280;47304;47.456;19.160;2024-01-16T08:46:02;99767.38;;;3.64;46.23
61436;BME280;47304;47.456;19.160;2024-01-16T08:48:30;99770.66;;;3.64;45.70
61436;BME280;47304;47.456;19.160;2024-01-16T08:50:58;99776.59;;;3.57;45.32
61436;BME280;47304;47.456;19.160;2024-01-16T08:53:27;99778.63;;;3.55;45.38
61436;BME280;47304;47.456;19.160;2024-01-16T08:55:55;99779.31;;;3.63;44.94
61436;BME280;47304;47.456;19.160;2024-01-16T08:58:24;99779.89;;;3.97;44.97
61436;BME280;47304;47.456;19.160;2024-01-16T09:00:52;99784.63;;;4.21;44.35
61436;BME280;47304;47.456;19.160;2024-01-16T09:03:20;99784.96;;;4.55;44.19
61436;BME280;47304;47.456;19.160;2024-01-16T09:05:48;99788.27;;;5.54;42.89
61436;BME280;47304;47.456;19.160;2024-01-16T09:08:16;99790.95;;;6.12;41.84
61436;BME280;47304;47.456;19.160;2024-01-16T09:10:45;99784.26;;;6.73;39.90
61436;BME280;47304;47.456;19.160;2024-01-16T09:13:13;99782.69;;;7.12;38.90
61436;BME280;47304;47.456;19.160;2024-01-16T09:15:41;99782.00;;;7.78;38.70
61436;BME280;47304;47.456;19.160;2024-01-16T09:18:10;99784.32;;;9.19;35.44
61436;BME280;47304;47.456;19.160;2024-01-16T09:20:38;99784.92;;;9.72;35.34
61436;BME280;47304;47.456;19.160;2024-01-16T09:23:06;99778.85;;;10.53;33.84
61436;BME280;47304;47.456;19.160;2024-01-16T09:25:35;99776.14;;;12.02;33.00
61436;BME280;47304;47.456;19.160;2024-01-16T09:28:03;99781.52;;;12.88;31.55
61436;BME280;47304;47.456;19.160;2024-01-16T09:30:32;99777.83;;;12.97;29.67
61436;BME280;47304;47.456;19.160;2024-01-16T09:33:00;99779.67;;;13.19;29.51
61436;BME280;47304;47.456;19.160;2024-01-16T09:35:28;99775.13;;;13.99;29.57
61436;BME280;47304;47.456;19.160;2024-01-16T09:37:57;99769.20;;;14.74;27.52
61436;BME280;47304;47.456;19.160;2024-01-16T09:40:25;99775.81;;;15.28;26.31
61436;BME280;47304;47.456;19.160;2024-01-16T09:42:53;99771.66;;;16.38;25.37
61436;BME280;47304;47.456;19.160;2024-01-16T09:45:22;99769.32;;;17.98;24.32
61436;BME280;47304;47.456;19.160;2024-01-16T09:47:52;99768.08;;;19.19;23.13
61436;BME280;47304;47.456;19.160;2024-01-16T09:50:21;99766.86;;;19.81;21.92
61436;BME280;47304;47.456;19.160;2024-01-16T09:52:50;99755.61;;;20.40;21.02
61436;BME280;47304;47.456;19.160;2024-01-16T09:55:18;99760.16;;;21.30;21.23
61436;BME280;47304;47.456;19.160;2024-01-16T09:57:47;99754.19;;;21.81;19.55
61436;BME280;47304;47.456;19.160;2024-01-16T10:00:19;99755.16;;;22.04;19.43
61436;BME280;47304;47.456;19.160;2024-01-16T10:02:48;99752.90;;;22.13;18.58
61436;BME280;47304;47.456;19.160;2024-01-16T10:05:18;99745.30;;;22.08;18.83
61436;BME280;47304;47.456;19.160;2024-01-16T10:07:46;99750.39;;;22.13;18.38
61436;BME280;47304;47.456;19.160;2024-01-16T10:10:15;99754.27;;;21.75;18.35
61436;BME280;47304;47.456;19.160;2024-01-16T10:12:43;99757.92;;;19.44;19.33
61436;BME280;47304;47.456;19.160;2024-01-16T10:15:12;99763.46;;;16.81;21.16
61436;BME280;47304;47.456;19.160;2024-01-16T10:17:42;99760.68;;;14.94;22.56
61436;BME280;47304;47.456;19.160;2024-01-16T10:20:11;99770.51;;;13.54;24.25
61436;BME280;47304;47.456;19.160;2024-01-16T10:22:40;99780.09;;;12.41;25.31
61436;BME280;47304;47.456;19.160;2024-01-16T10:25:11;99780.34;;;11.67;26.39
61436;BME280;47304;47.456;19.160;2024-01-16T10:27:38;99786.54;;;11.23;27.23
61436;BME280;47304;47.456;19.160;2024-01-16T10:30:08;99797.06;;;10.55;27.35
61436;BME280;47304;47.456;19.160;2024-01-16T10:32:37;99803.79;;;9.77;28.51
61436;BME280;47304;47.456;19.160;2024-01-16T10:35:07;99801.47;;;9.15;29.44
61436;BME280;47304;47.456;19.160;2024-01-16T10:37:47;99800.17;;;8.76;29.99
61436;BME280;47304;47.456;19.160;2024-01-16T10:40:19;99799.48;;;9.28;30.11
61436;BME280;47304;47.456;19.160;2024-01-16T10:42:56;99789.14;;;10.59;28.82
61436;BME280;47304;47.456;19.160;2024-01-16T10:45:25;99789.73;;;11.48;28.07
61436;BME280;47304;47.456;19.160;2024-01-16T10:48:01;99790.52;;;11.12;27.93
61436;BME280;47304;47.456;19.160;2024-01-16T10:50:30;99797.14;;;10.26;28.82
61436;BME280;47304;47.456;19.160;2024-01-16T10:53:01;99793.96;;;11.31;28.12
61436;BME280;47304;47.456;19.160;2024-01-16T10:55:31;99782.91;;;13.92;26.28
61436;BME280;47304;47.456;19.160;2024-01-16T10:58:04;99770.98;;;16.90;24.24
61436;BME280;47304;47.456;19.160;2024-01-16T11:00:34;99767.27;;;20.11;22.24
61436;BME280;47304;47.456;19.160;2024-01-16T11:03:07;99760.68;;;22.32;19.60
61436;BME280;47304;47.456;19.160;2024-01-16T11:05:39;99763.11;;;23.48;18.39
61436;BME280;47304;47.456;19.160;2024-01-16T11:08:09;99761.65;;;24.42;17.33
61436;BME280;47304;47.456;19.160;2024-01-16T11:10:41;99765.64;;;24.28;17.10
61436;BME280;47304;47.456;19.160;2024-01-16T11:13:10;99764.59;;;23.76;17.73
61436;BME280;47304;47.456;19.160;2024-01-16T11:15:39;99766.52;;;24.63;17.16
61436;BME280;47304;47.456;19.160;2024-01-16T11:18:09;99769.55;;;25.00;15.98
61436;BME280;47304;47.456;19.160;2024-01-16T11:20:38;99767.11;;;25.32;16.32
61436;BME280;47304;47.456;19.160;2024-01-16T11:23:07;99758.23;;;26.08;15.95
61436;BME280;47304;47.456;19.160;2024-01-16T11:25:36;99760.66;;;26.52;15.25
61436;BME280;47304;47.456;19.160;2024-01-16T11:28:11;99759.60;;;25.64;15.15
61436;BME280;47304;47.456;19.160;2024-01-16T11:30:40;99755.84;;;23.80;16.24
61436;BME280;47304;47.456;19.160;2024-01-16T11:33:43;99760.43;;;21.95;17.04
61436;BME280;47304;47.456;19.160;2024-01-16T11:39:11;99770.96;;;17.91;19.93
61436;BME280;47304;47.456;19.160;2024-01-16T11:41:51;99778.34;;;16.22;21.06
61436;BME280;47304;47.456;19.160;2024-01-16T11:44:38;99781.54;;;14.80;22.34
61436;BME280;47304;47.456;19.160;2024-01-16T11:47:06;99783.08;;;15.19;22.93
61436;BME280;47304;47.456;19.160;2024-01-16T11:49:35;99780.61;;;16.14;22.10
61436;BME280;47304;47.456;19.160;2024-01-16T11:52:03;99786.23;;;16.93;21.41
61436;BME280;47304;47.456;19.160;2024-01-16T11:54:32;99780.89;;;16.37;21.65
61436;BME280;47304;47.456;19.160;2024-01-16T11:57:18;99782.71;;;17.36;21.51
61436;BME280;47304;47.456;19.160;2024-01-16T11:59:59;99773.30;;;17.97;20.98
61436;BME280;47304;47.456;19.160;2024-01-16T12:02:34;99773.49;;;17.36;21.06
61436;BME280;47304;47.456;19.160;2024-01-16T12:05:04;99774.34;;;17.61;20.93
61436;BME280;47304;47.456;19.160;2024-01-16T12:07:44;99771.59;;;16.72;21.47
61436;BME280;47304;47.456;19.160;2024-01-16T12:10:13;99782.65;;;15.88;21.60
61436;BME280;47304;47.456;19.160;2024-01-16T12:12:41;99782.05;;;15.79;21.55
61436;BME280;47304;47.456;19.160;2024-01-16T12:15:14;99782.04;;;17.06;21.04
61436;BME280;47304;47.456;19.160;2024-01-16T12:17:53;99779.17;;;18.09;20.11
61436;BME280;47304;47.456;19.160;2024-01-16T12:20:23;99775.88;;;19.20;19.49
61436;BME280;47304;47.456;19.160;2024-01-16T12:22:56;99769.43;;;20.44;18.79
61436;BME280;47304;47.456;19.160;2024-01-16T12:25:25;99767.52;;;20.69;17.75
61436;BME280;47304;47.456;19.160;2024-01-16T12:27:57;99763.48;;;19.96;18.24
61436;BME280;47304;47.456;19.160;2024-01-16T12:30:27;99766.25;;;19.09;18.68
61436;BME280;47304;47.456;19.160;2024-01-16T12:33:04;99766.48;;;18.25;19.58
61436;BME280;47304;47.456;19.160;2024-01-16T12:35:32;99769.98;;;17.21;20.11
61436;BME280;47304;47.456;19.160;2024-01-16T12:38:02;99773.92;;;15.90;21.11
61436;BME280;47304;47.456;19.160;2024-01-16T12:40:30;99771.11;;;14.81;21.98
61436;BME280;47304;47.456;19.160;2024-01-16T12:42:58;99778.34;;;14.05;22.69
61436;BME280;47304;47.456;19.160;2024-01-16T12:45:27;99779.80;;;13.21;23.12
61436;BME280;47304;47.456;19.160;2024-01-16T12:47:55;99779.94;;;12.28;24.06
61436;BME280;47304;47.456;19.160;2024-01-16T12:50:24;99786.20;;;11.48;24.80
61436;BME280;47304;47.456;19.160;2024-01-16T12:53:03;99786.27;;;10.68;25.39
61436;BME280;47304;47.456;19.160;2024-01-16T12:55:31;99793.97;;;9.80;26.27
61436;BME280;47304;47.456;19.160;2024-01-16T12:58:18;99791.15;;;9.14;27.28
61436;BME280;47304;47.456;19.160;2024-01-16T13:00:47;99793.55;;;8.72;28.15
61436;BME280;47304;47.456;19.160;2024-01-16T13:03:20;99799.52;;;8.36;28.54
61436;BME280;47304;47.456;19.160;2024-01-16T13:05:56;99801.06;;;7.98;28.78
61436;BME280;47304;47.456;19.160;2024-01-16T13:08:25;99797.50;;;7.55;29.33